createdAt,value
2023-05-13T00:01:09.842Z,100.00
2023-05-13T00:03:39.805Z,100.00
2023-05-13T00:06:08.148Z,100.00
2023-05-13T00:08:36.965Z,100.00
2023-05-13T00:11:05.124Z,100.00
2023-05-13T00:13:33.106Z,100.00
2023-05-13T00:16:02.499Z,100.00
2023-05-13T00:18:30.656Z,100.00
2023-05-13T00:20:58.683Z,100.00
2023-05-13T00:23:26.642Z,100.00
2023-05-13T00:25:54.607Z,100.00
2023-05-13T00:28:22.572Z,100.00
2023-05-13T00:30:50.713Z,100.00
2023-05-13T00:33:20.110Z,100.00
2023-05-13T00:35:48.111Z,100.00
2023-05-13T00:38:16.234Z,100.00
2023-05-13T00:40:44.849Z,100.00
2023-05-13T00:43:12.984Z,100.00
2023-05-13T00:45:41.262Z,100.00
2023-05-13T00:48:10.115Z,100.00
2023-05-13T00:50:42.214Z,100.00
2023-05-13T00:53:10.552Z,100.00
2023-05-13T00:55:42.744Z,100.00
2023-05-13T00:58:11.915Z,100.00
2023-05-13T01:00:47.201Z,100.00
2023-05-13T01:03:21.208Z,100.00
2023-05-13T01:06:00.403Z,100.00
2023-05-13T01:08:35.416Z,100.00
2023-05-13T01:11:06.144Z,100.00
2023-05-13T01:13:43.210Z,100.00
2023-05-13T01:16:17.192Z,100.00
2023-05-13T01:18:50.687Z,100.00
2023-05-13T01:21:26.357Z,100.00
2023-05-13T01:23:54.458Z,100.00
2023-05-13T01:26:24.335Z,100.00
2023-05-13T01:28:52.534Z,100.00
2023-05-13T01:31:22.430Z,100.00
2023-05-13T01:33:51.148Z,100.00
2023-05-13T01:36:19.751Z,100.00
2023-05-13T01:38:50.205Z,100.00
2023-05-13T01:41:18.416Z,100.00
2023-05-13T01:43:46.550Z,100.00
2023-05-13T01:46:15.167Z,100.00
2023-05-13T01:48:43.298Z,100.00
2023-05-13T01:51:11.631Z,100.00
2023-05-13T01:53:40.040Z,100.00
2023-05-13T01:56:11.476Z,100.00
2023-05-13T01:58:39.702Z,100.00
2023-05-13T02:01:07.820Z,100.00
2023-05-13T02:03:37.004Z,100.00
2023-05-13T02:06:05.513Z,100.00
2023-05-13T02:08:33.709Z,100.00
2023-05-13T02:11:02.004Z,100.00
2023-05-13T02:13:31.379Z,100.00
2023-05-13T02:15:59.475Z,100.00
2023-05-13T02:18:27.705Z,100.00
2023-05-13T02:20:56.369Z,100.00
2023-05-13T02:23:24.289Z,100.00
2023-05-13T02:25:52.405Z,100.00
2023-05-13T02:28:20.295Z,100.00
2023-05-13T02:30:49.695Z,100.00
2023-05-13T02:33:17.608Z,100.00
2023-05-13T02:35:45.773Z,100.00
2023-05-13T02:38:14.015Z,100.00
2023-05-13T02:40:42.380Z,100.00
2023-05-13T02:43:10.319Z,100.00
2023-05-13T02:45:38.844Z,100.00
2023-05-13T02:48:08.294Z,100.00
2023-05-13T02:50:36.434Z,100.00
2023-05-13T02:53:04.500Z,100.00
2023-05-13T02:55:32.678Z,100.00
2023-05-13T02:58:00.687Z,100.00
2023-05-13T03:00:28.645Z,100.00
2023-05-13T03:02:57.803Z,100.00
2023-05-13T03:05:29.780Z,100.00
2023-05-13T03:08:01.017Z,100.00
2023-05-13T03:10:29.111Z,100.00
2023-05-13T03:12:57.187Z,100.00
2023-05-13T03:15:25.436Z,100.00
2023-05-13T03:17:53.676Z,100.00
2023-05-13T03:20:21.833Z,100.00
2023-05-13T03:22:51.487Z,100.00
2023-05-13T03:25:19.683Z,100.00
2023-05-13T03:27:47.717Z,100.00
2023-05-13T03:30:15.792Z,100.00
2023-05-13T03:32:44.078Z,100.00
2023-05-13T03:35:12.156Z,100.00
2023-05-13T03:37:40.163Z,100.00
2023-05-13T03:40:11.009Z,100.00
2023-05-13T03:42:39.644Z,100.00
2023-05-13T03:45:09.017Z,100.00
2023-05-13T03:47:39.196Z,100.00
2023-05-13T03:50:08.548Z,100.00
2023-05-13T03:52:36.474Z,100.00
2023-05-13T03:55:05.429Z,100.00
2023-05-13T03:57:34.882Z,100.00
2023-05-13T04:00:03.621Z,100.00
2023-05-13T04:02:31.671Z,100.00
2023-05-13T04:04:59.747Z,100.00
2023-05-13T04:07:27.657Z,100.00
2023-05-13T04:09:55.804Z,100.00
2023-05-13T04:12:25.733Z,100.00
2023-05-13T04:14:55.063Z,100.00
2023-05-13T04:17:23.092Z,100.00
2023-05-13T04:19:54.227Z,100.00
2023-05-13T04:22:22.983Z,100.00
2023-05-13T04:24:52.153Z,100.00
2023-05-13T04:27:20.192Z,100.00
2023-05-13T04:29:48.164Z,100.00
2023-05-13T04:32:21.697Z,100.00
2023-05-13T04:34:49.816Z,100.00
2023-05-13T04:37:18.207Z,100.00
2023-05-13T04:39:47.814Z,100.00
2023-05-13T04:42:16.355Z,100.00
2023-05-13T04:44:44.700Z,100.00
2023-05-13T04:47:12.858Z,100.00
2023-05-13T04:49:42.403Z,100.00
2023-05-13T04:52:12.907Z,100.00
2023-05-13T04:54:41.389Z,100.00
2023-05-13T04:57:09.714Z,100.00
2023-05-13T04:59:37.700Z,100.00
2023-05-13T05:02:06.169Z,100.00
2023-05-13T05:04:34.392Z,100.00
2023-05-13T05:07:03.783Z,100.00
2023-05-13T05:09:31.766Z,100.00
2023-05-13T05:11:59.716Z,98.99
2023-05-13T05:14:27.691Z,97.66
2023-05-13T05:16:55.701Z,96.27
2023-05-13T05:19:24.806Z,94.29
2023-05-13T05:21:52.864Z,93.94
2023-05-13T05:24:22.215Z,93.06
2023-05-13T05:26:50.239Z,92.12
2023-05-13T05:29:18.441Z,89.48
2023-05-13T05:31:46.472Z,90.71
2023-05-13T05:34:14.423Z,91.25
2023-05-13T05:36:42.403Z,91.16
2023-05-13T05:39:11.010Z,89.45
2023-05-13T05:41:40.442Z,88.95
2023-05-13T05:44:08.527Z,88.24
2023-05-13T05:46:36.666Z,85.60
2023-05-13T05:49:04.807Z,84.22
2023-05-13T05:51:32.739Z,82.69
2023-05-13T05:54:00.831Z,81.28
2023-05-13T05:56:28.732Z,81.59
2023-05-13T05:58:58.170Z,79.00
2023-05-13T06:01:26.272Z,77.77
2023-05-13T06:03:55.140Z,75.14
2023-05-13T06:06:23.315Z,73.28
2023-05-13T06:08:51.377Z,71.15
2023-05-13T06:11:19.350Z,71.28
2023-05-13T06:13:47.359Z,73.41
2023-05-13T06:16:17.214Z,71.86
2023-05-13T06:18:45.241Z,72.15
2023-05-13T06:21:14.997Z,71.51
2023-05-13T06:23:42.989Z,70.60
2023-05-13T06:26:11.035Z,69.43
2023-05-13T06:28:39.138Z,69.41
2023-05-13T06:31:09.178Z,70.30
2023-05-13T06:33:38.908Z,70.97
2023-05-13T06:36:07.558Z,71.82
2023-05-13T06:38:35.549Z,69.83
2023-05-13T06:41:03.481Z,68.12
2023-05-13T06:43:31.441Z,68.32
2023-05-13T06:45:59.939Z,68.38
2023-05-13T06:48:28.184Z,69.61
2023-05-13T06:50:57.648Z,68.50
2023-05-13T06:53:25.533Z,68.83
2023-05-13T06:55:53.522Z,67.53
2023-05-13T06:58:21.581Z,66.78
2023-05-13T07:00:49.650Z,67.61
2023-05-13T07:03:17.848Z,66.27
2023-05-13T07:05:45.983Z,65.33
2023-05-13T07:08:17.998Z,67.17
2023-05-13T07:10:46.127Z,68.04
2023-05-13T07:13:14.286Z,67.45
2023-05-13T07:15:42.589Z,63.60
2023-05-13T07:18:10.560Z,63.54
2023-05-13T07:20:38.785Z,61.71
2023-05-13T07:23:06.712Z,59.75
2023-05-13T07:25:36.073Z,58.76
2023-05-13T07:28:04.340Z,58.29
2023-05-13T07:30:41.710Z,57.26
2023-05-13T07:33:09.752Z,55.87
2023-05-13T07:35:37.870Z,55.60
2023-05-13T07:38:06.001Z,57.19
2023-05-13T07:40:35.409Z,56.57
2023-05-13T07:43:03.404Z,55.32
2023-05-13T07:45:31.489Z,55.63
2023-05-13T07:47:59.824Z,54.81
2023-05-13T07:50:27.896Z,53.99
2023-05-13T07:52:55.887Z,53.37
2023-05-13T07:55:24.182Z,53.76
2023-05-13T07:57:53.722Z,54.14
2023-05-13T08:00:22.091Z,54.51
2023-05-13T08:02:50.187Z,54.88
2023-05-13T08:05:18.366Z,53.04
2023-05-13T08:07:46.350Z,52.04
2023-05-13T08:10:14.535Z,51.26
2023-05-13T08:12:42.556Z,50.79
2023-05-13T08:15:14.351Z,50.61
2023-05-13T08:17:42.430Z,51.01
2023-05-13T08:20:11.541Z,50.54
2023-05-13T08:22:39.470Z,50.33
2023-05-13T08:25:07.847Z,50.13
2023-05-13T08:27:36.422Z,50.48
2023-05-13T08:30:04.762Z,49.77
2023-05-13T08:32:34.207Z,48.72
2023-05-13T08:35:02.372Z,49.60
2023-05-13T08:37:30.407Z,48.34
2023-05-13T08:40:00.653Z,48.46
2023-05-13T08:42:29.990Z,47.88
2023-05-13T08:44:58.613Z,48.12
2023-05-13T08:47:38.317Z,48.26
2023-05-13T08:50:08.122Z,47.86
2023-05-13T08:52:36.185Z,48.82
2023-05-13T08:55:05.180Z,48.44
2023-05-13T08:57:33.117Z,48.23
2023-05-13T09:00:01.261Z,47.48
2023-05-13T09:02:29.433Z,46.14
2023-05-13T09:05:03.947Z,45.44
2023-05-13T09:07:32.130Z,44.75
2023-05-13T09:10:00.352Z,45.33
2023-05-13T09:12:47.483Z,43.63
2023-05-13T09:15:17.369Z,42.75
2023-05-13T09:17:48.826Z,42.78
2023-05-13T09:20:19.903Z,44.22
2023-05-13T09:22:49.428Z,44.21
2023-05-13T09:25:19.041Z,43.48
2023-05-13T09:27:49.312Z,43.67
2023-05-13T09:30:17.446Z,44.46
2023-05-13T09:32:45.473Z,44.81
2023-05-13T09:35:18.393Z,44.56
2023-05-13T09:37:49.164Z,46.17
2023-05-13T09:40:18.768Z,47.02
2023-05-13T09:42:47.627Z,45.22
2023-05-13T09:45:17.539Z,45.35
2023-05-13T09:47:45.922Z,44.37
2023-05-13T09:50:14.013Z,43.23
2023-05-13T09:52:42.305Z,42.56
2023-05-13T09:55:11.922Z,41.62
2023-05-13T09:57:40.874Z,41.84
2023-05-13T10:00:28.840Z,39.15
2023-05-13T10:02:57.911Z,40.28
2023-05-13T10:05:26.484Z,39.71
2023-05-13T10:07:55.187Z,39.90
2023-05-13T10:10:25.949Z,40.83
2023-05-13T10:12:54.259Z,40.24
2023-05-13T10:15:22.650Z,39.29
2023-05-13T10:17:51.118Z,38.03
2023-05-13T10:20:20.024Z,37.89
2023-05-13T10:22:48.435Z,37.99
2023-05-13T10:25:16.454Z,37.48
2023-05-13T10:27:46.661Z,35.77
2023-05-13T10:30:16.585Z,35.06
2023-05-13T10:32:44.810Z,35.05
2023-05-13T10:35:15.176Z,35.80
2023-05-13T10:37:57.948Z,34.65
2023-05-13T10:41:09.566Z,33.58
2023-05-13T10:43:39.452Z,31.56
2023-05-13T10:46:08.636Z,32.33
2023-05-13T10:48:41.415Z,33.86
2023-05-13T10:51:10.407Z,33.24
2023-05-13T10:53:44.317Z,33.14
2023-05-13T10:56:12.499Z,33.57
2023-05-13T10:58:42.175Z,34.19
2023-05-13T11:01:20.720Z,34.50
2023-05-13T11:03:54.422Z,35.04
2023-05-13T11:06:24.329Z,35.67
2023-05-13T11:08:55.742Z,34.99
2023-05-13T11:11:27.550Z,35.66
2023-05-13T11:14:04.590Z,35.01
2023-05-13T11:16:32.768Z,34.11
2023-05-13T11:19:03.355Z,32.37
2023-05-13T11:21:33.343Z,31.75
2023-05-13T11:24:05.614Z,32.41
2023-05-13T11:26:47.210Z,32.00
2023-05-13T11:29:28.386Z,31.97
2023-05-13T11:32:00.316Z,32.66
2023-05-13T11:34:30.259Z,32.15
2023-05-13T11:37:08.257Z,31.83
2023-05-13T11:39:36.691Z,30.76
2023-05-13T11:42:08.731Z,29.75
2023-05-13T11:44:39.137Z,29.54
2023-05-13T11:47:08.184Z,28.94
2023-05-13T11:49:41.232Z,29.74
2023-05-13T11:52:10.960Z,29.42
2023-05-13T11:54:44.030Z,29.09
2023-05-13T11:57:22.914Z,29.01
2023-05-13T11:59:58.179Z,27.80
2023-05-13T12:02:28.132Z,29.66
2023-05-13T12:04:56.854Z,30.34
2023-05-13T12:07:25.595Z,30.41
2023-05-13T12:09:56.673Z,30.80
2023-05-13T12:12:25.061Z,31.31
2023-05-13T12:14:54.341Z,31.13
2023-05-13T12:17:25.017Z,31.05
2023-05-13T12:20:11.689Z,31.71
2023-05-13T12:22:52.359Z,31.35
2023-05-13T12:25:44.884Z,31.72
2023-05-13T12:28:16.895Z,32.66
2023-05-13T12:30:51.087Z,32.75
2023-05-13T12:33:22.261Z,33.63
2023-05-13T12:35:51.820Z,34.00
2023-05-13T12:38:21.249Z,33.74
2023-05-13T12:40:50.804Z,33.83
2023-05-13T12:43:20.267Z,33.45
2023-05-13T12:45:53.839Z,34.31
2023-05-13T12:48:26.699Z,35.08
2023-05-13T12:50:56.397Z,35.71
2023-05-13T12:53:24.611Z,35.38
2023-05-13T12:55:52.777Z,35.15
2023-05-13T12:58:20.889Z,34.96
2023-05-13T13:00:49.209Z,35.49
2023-05-13T13:03:17.287Z,34.52
2023-05-13T13:05:47.106Z,35.10
2023-05-13T13:08:15.139Z,35.58
2023-05-13T13:10:43.124Z,35.16
2023-05-13T13:13:11.262Z,35.50
2023-05-13T13:15:39.395Z,35.17
2023-05-13T13:18:07.651Z,36.00
2023-05-13T13:20:35.852Z,36.79
2023-05-13T13:23:05.361Z,38.06
2023-05-13T13:25:33.399Z,38.83
2023-05-13T13:28:01.684Z,39.27
2023-05-13T13:30:29.756Z,38.21
2023-05-13T13:32:57.798Z,38.41
2023-05-13T13:35:25.944Z,38.38
2023-05-13T13:37:54.484Z,37.93
2023-05-13T13:40:24.350Z,38.39
2023-05-13T13:42:52.514Z,39.79
2023-05-13T13:45:24.160Z,40.40
2023-05-13T13:47:52.390Z,39.91
2023-05-13T13:50:20.631Z,40.87
2023-05-13T13:52:48.935Z,41.84
2023-05-13T13:55:17.101Z,41.29
2023-05-13T13:57:46.534Z,41.31
2023-05-13T14:00:15.532Z,40.93
2023-05-13T14:02:44.563Z,40.15
2023-05-13T14:05:13.208Z,40.61
2023-05-13T14:07:41.245Z,41.08
2023-05-13T14:10:10.633Z,40.57
2023-05-13T14:12:39.418Z,40.44
2023-05-13T14:15:09.912Z,40.62
2023-05-13T14:17:38.116Z,39.74
2023-05-13T14:20:07.755Z,40.55
2023-05-13T14:22:35.888Z,40.48
2023-05-13T14:25:03.775Z,40.62
2023-05-13T14:27:34.027Z,40.10
2023-05-13T14:30:02.057Z,40.46
2023-05-13T14:32:31.419Z,39.75
2023-05-13T14:34:59.451Z,39.62
2023-05-13T14:37:27.706Z,39.74
2023-05-13T14:39:55.718Z,38.31
2023-05-13T14:42:23.855Z,38.68
2023-05-13T14:44:51.835Z,38.42
2023-05-13T14:47:19.889Z,38.63
2023-05-13T14:49:49.335Z,39.44
2023-05-13T14:52:17.293Z,40.13
2023-05-13T14:54:45.321Z,39.24
2023-05-13T14:57:13.344Z,38.66
2023-05-13T14:59:41.394Z,39.40
2023-05-13T15:02:09.565Z,39.37
2023-05-13T15:04:37.584Z,39.23
2023-05-13T15:07:08.424Z,39.23
2023-05-13T15:09:36.382Z,39.52
2023-05-13T15:12:04.482Z,39.97
2023-05-13T15:14:32.511Z,39.73
2023-05-13T15:17:00.605Z,39.20
2023-05-13T15:19:28.863Z,39.24
2023-05-13T15:21:56.889Z,39.11
2023-05-13T15:24:26.400Z,39.64
2023-05-13T15:26:54.293Z,38.93
2023-05-13T15:29:22.190Z,38.89
2023-05-13T15:31:51.768Z,38.14
2023-05-13T15:34:19.746Z,37.34
2023-05-13T15:36:47.819Z,36.21
2023-05-13T15:39:16.594Z,36.60
2023-05-13T15:41:46.440Z,36.93
2023-05-13T15:44:14.555Z,37.44
2023-05-13T15:46:42.948Z,37.73
2023-05-13T15:49:11.066Z,37.69
2023-05-13T15:51:39.044Z,38.13
2023-05-13T15:54:07.310Z,39.53
2023-05-13T15:56:35.359Z,40.20
2023-05-13T15:59:05.090Z,40.36
2023-05-13T16:01:33.243Z,41.10
2023-05-13T16:04:01.316Z,41.49
2023-05-13T16:06:29.250Z,41.72
2023-05-13T16:08:57.131Z,41.77
2023-05-13T16:11:25.765Z,42.38
2023-05-13T16:13:53.875Z,42.27
2023-05-13T16:16:23.505Z,41.98
2023-05-13T16:18:52.187Z,42.43
2023-05-13T16:23:48.373Z,42.81
2023-05-13T16:26:16.430Z,43.23
2023-05-13T16:28:44.465Z,43.76
2023-05-13T16:31:12.472Z,43.83
2023-05-13T16:33:41.862Z,44.01
2023-05-13T16:36:11.375Z,45.04
2023-05-13T16:38:41.394Z,45.00
2023-05-13T16:41:09.822Z,45.68
2023-05-13T16:43:37.897Z,46.41
2023-05-13T16:46:06.053Z,47.10
2023-05-13T16:48:34.137Z,47.43
2023-05-13T16:51:04.448Z,48.49
2023-05-13T16:53:32.411Z,48.86
2023-05-13T16:56:00.881Z,49.22
2023-05-13T16:58:30.450Z,49.22
2023-05-13T17:00:59.505Z,49.32
2023-05-13T17:03:27.938Z,49.75
2023-05-13T17:05:56.000Z,49.61
2023-05-13T17:08:25.506Z,50.06
2023-05-13T17:10:53.489Z,50.32
2023-05-13T17:13:22.217Z,50.47
2023-05-13T17:15:50.281Z,50.45
2023-05-13T17:18:19.562Z,50.53
2023-05-13T17:20:47.728Z,50.59
2023-05-13T17:23:17.285Z,51.18
2023-05-13T17:25:47.117Z,50.90
2023-05-13T17:28:15.007Z,50.80
2023-05-13T17:30:43.471Z,50.88
2023-05-13T17:33:11.494Z,51.62
2023-05-13T17:35:39.572Z,51.83
2023-05-13T17:38:07.525Z,52.23
2023-05-13T17:40:35.576Z,51.78
2023-05-13T17:43:04.896Z,52.32
2023-05-13T17:45:33.269Z,51.66
2023-05-13T17:48:01.491Z,51.84
2023-05-13T17:50:30.538Z,52.21
2023-05-13T17:52:58.683Z,52.56
2023-05-13T17:55:26.751Z,52.43
2023-05-13T17:57:55.777Z,52.65
2023-05-13T18:00:26.113Z,53.46
2023-05-13T18:02:54.485Z,53.52
2023-05-13T18:05:22.734Z,53.85
2023-05-13T18:07:51.154Z,55.51
2023-05-13T18:10:19.360Z,57.35
2023-05-13T18:12:47.380Z,58.34
2023-05-13T18:15:15.493Z,59.71
2023-05-13T18:17:44.866Z,61.95
2023-05-13T18:20:13.908Z,62.45
2023-05-13T18:22:41.976Z,63.03
2023-05-13T18:25:11.354Z,63.45
2023-05-13T18:27:39.449Z,63.34
2023-05-13T18:30:08.637Z,63.98
2023-05-13T18:32:36.585Z,64.19
2023-05-13T18:35:06.827Z,65.56
2023-05-13T18:37:34.837Z,66.96
2023-05-13T18:40:03.091Z,67.57
2023-05-13T18:42:31.323Z,68.04
2023-05-13T18:44:59.246Z,68.09
2023-05-13T18:47:27.168Z,67.86
2023-05-13T18:49:55.162Z,68.06
2023-05-13T18:52:24.524Z,67.11
2023-05-13T18:54:52.558Z,67.07
2023-05-13T18:57:20.887Z,67.50
2023-05-13T18:59:49.053Z,67.33
2023-05-13T19:02:17.343Z,66.71
2023-05-13T19:04:45.968Z,65.63
2023-05-13T19:07:14.012Z,64.97
2023-05-13T19:09:43.456Z,64.68
2023-05-13T19:12:11.605Z,64.10
2023-05-13T19:14:39.619Z,64.00
2023-05-13T19:17:07.745Z,65.37
2023-05-13T19:19:35.813Z,64.21
2023-05-13T19:22:03.819Z,64.15
2023-05-13T19:24:31.710Z,64.67
2023-05-13T19:27:01.208Z,63.44
2023-05-13T19:29:29.247Z,63.83
2023-05-13T19:31:57.442Z,64.28
2023-05-13T19:34:25.725Z,64.18
2023-05-13T19:36:53.749Z,64.98
2023-05-13T19:39:21.655Z,66.89
2023-05-13T19:41:49.670Z,69.11
2023-05-13T19:44:19.573Z,70.04
2023-05-13T19:46:47.650Z,71.17
2023-05-13T19:49:15.791Z,71.86
2023-05-13T19:51:43.901Z,72.68
2023-05-13T19:54:12.572Z,73.98
2023-05-13T19:56:41.373Z,74.58
2023-05-13T19:59:09.729Z,73.54
2023-05-13T20:01:39.155Z,73.42
2023-05-13T20:04:07.346Z,73.01
2023-05-13T20:06:35.526Z,72.75
2023-05-13T20:09:03.638Z,73.18
2023-05-13T20:11:31.861Z,73.78
2023-05-13T20:13:59.836Z,74.24
2023-05-13T20:16:28.815Z,75.20
2023-05-13T20:18:58.435Z,76.06
2023-05-13T20:21:26.444Z,77.04
2023-05-13T20:23:54.493Z,77.43
2023-05-13T20:26:22.584Z,79.04
2023-05-13T20:28:52.035Z,80.70
2023-05-13T20:31:20.001Z,81.77
2023-05-13T20:33:48.094Z,82.67
2023-05-13T20:36:17.775Z,83.41
2023-05-13T20:38:45.889Z,83.56
2023-05-13T20:41:13.989Z,82.79
2023-05-13T20:43:42.016Z,82.43
2023-05-13T20:46:14.821Z,81.48
2023-05-13T20:48:43.052Z,81.19
2023-05-13T20:51:11.534Z,81.25
2023-05-13T20:53:41.050Z,81.02
2023-05-13T20:56:10.023Z,80.80
2023-05-13T20:58:38.126Z,80.87
2023-05-13T21:01:06.213Z,81.74
2023-05-13T21:03:34.478Z,82.40
2023-05-13T21:06:02.432Z,83.06
2023-05-13T21:08:30.468Z,83.54
2023-05-13T21:10:59.746Z,84.49
2023-05-13T21:13:27.903Z,85.55
2023-05-13T21:15:57.366Z,86.46
2023-05-13T21:18:25.864Z,87.50
2023-05-13T21:20:53.851Z,88.13
2023-05-13T21:23:21.801Z,89.44
2023-05-13T21:25:49.909Z,90.58
2023-05-13T21:28:19.919Z,91.46
2023-05-13T21:30:47.904Z,91.95
2023-05-13T21:33:16.830Z,92.50
2023-05-13T21:35:44.920Z,93.51
2023-05-13T21:38:12.887Z,94.14
2023-05-13T21:40:41.091Z,94.94
2023-05-13T21:43:09.353Z,96.53
2023-05-13T21:45:39.140Z,97.52
2023-05-13T21:48:08.648Z,98.10
2023-05-13T21:50:36.910Z,99.10
2023-05-13T21:53:05.048Z,99.31
2023-05-13T21:55:35.105Z,99.71
2023-05-13T21:58:03.373Z,100.00
2023-05-13T22:00:31.780Z,100.00
2023-05-13T22:03:04.101Z,100.00
2023-05-13T22:05:32.293Z,100.00
2023-05-13T22:08:01.855Z,100.00
2023-05-13T22:10:31.066Z,100.00
2023-05-13T22:12:59.426Z,100.00
2023-05-13T22:15:27.584Z,100.00
2023-05-13T22:17:55.572Z,100.00
2023-05-13T22:20:25.599Z,100.00
2023-05-13T22:22:53.795Z,100.00
2023-05-13T22:25:21.766Z,100.00
2023-05-13T22:27:49.773Z,100.00
2023-05-13T22:30:18.027Z,100.00
2023-05-13T22:32:46.190Z,100.00
2023-05-13T22:35:14.183Z,100.00
2023-05-13T22:37:43.620Z,100.00
2023-05-13T22:40:12.624Z,100.00
2023-05-13T22:42:40.616Z,100.00
2023-05-13T22:45:09.617Z,100.00
2023-05-13T22:47:37.989Z,100.00
2023-05-13T22:50:06.590Z,100.00
2023-05-13T22:52:34.606Z,100.00
2023-05-13T22:55:03.922Z,100.00
2023-05-13T22:57:31.978Z,100.00
2023-05-13T22:59:59.992Z,100.00
2023-05-13T23:02:28.142Z,100.00
2023-05-13T23:04:56.104Z,100.00
2023-05-13T23:07:24.100Z,100.00
2023-05-13T23:09:52.085Z,100.00
2023-05-13T23:12:22.310Z,100.00
2023-05-13T23:14:50.379Z,100.00
2023-05-13T23:17:18.382Z,100.00
2023-05-13T23:19:46.454Z,100.00
2023-05-13T23:22:14.357Z,100.00
2023-05-13T23:24:42.555Z,100.00
2023-05-13T23:27:11.426Z,100.00
2023-05-13T23:29:40.717Z,100.00
2023-05-13T23:32:09.269Z,100.00
2023-05-13T23:34:37.416Z,100.00
2023-05-13T23:37:05.797Z,100.00
2023-05-13T23:39:33.888Z,100.00
2023-05-13T23:42:01.866Z,100.00
2023-05-13T23:44:32.199Z,100.00
2023-05-13T23:47:01.619Z,100.00
2023-05-13T23:49:29.520Z,100.00
2023-05-13T23:51:57.639Z,100.00
2023-05-13T23:54:25.681Z,100.00
2023-05-13T23:56:53.553Z,100.00
2023-05-13T23:59:21.488Z,100.00
